AFR10E LFPO-KJFK
Flight info
| Callsign | AFR10E |
|---|---|
| Flight time | N/A |
| Altitude | 36000 |
| Route | LGL UN502 JSY DCT LIZAD DCT ARKIL DCT LIMRI/M083F380 NATD IBERG/N0472F380 N364A TUSKY DCT PLYMM PARCH4 |
| Aircraft | B772/H-SDE2E3FGHIJ5LORVWXY/LB1D1 |
Departure
| Time | 2026-05-06 11:48 |
|---|---|
| Airport | Paris-Orly Airport (LFPO) |
Arrival
| Time | N/A |
|---|---|
| Airport | John F. Kennedy International Airport (KJFK) |
| Time | Latitude | Longitude | Altitude | Speed | Heading |
|---|---|---|---|---|---|
| 2026-05-06 11:31 | 48.72727 | 2.37052 | 301 ft | 0 kts | 343° |
| 2026-05-06 11:38 | 48.72723 | 2.37053 | 297 ft | 3 kts | 343° |
| 2026-05-06 11:38 | 48.72700 | 2.37070 | 299 ft | 4 kts | 314° |
| 2026-05-06 11:38 | 48.72689 | 2.37102 | 298 ft | 4 kts | 272° |
| 2026-05-06 11:39 | 48.72691 | 2.37132 | 300 ft | 1 kts | 254° |
| 2026-05-06 11:39 | 48.72692 | 2.37137 | 300 ft | 0 kts | 254° |
| 2026-05-06 11:42 | 48.72672 | 2.37033 | 301 ft | 19 kts | 254° |
| 2026-05-06 11:42 | 48.72636 | 2.36847 | 298 ft | 19 kts | 252° |
| 2026-05-06 11:43 | 48.72594 | 2.36683 | 299 ft | 14 kts | 246° |
| 2026-05-06 11:43 | 48.72517 | 2.36605 | 300 ft | 14 kts | 207° |
| 2026-05-06 11:43 | 48.72469 | 2.36482 | 298 ft | 14 kts | 255° |
| 2026-05-06 11:44 | 48.72417 | 2.36198 | 299 ft | 14 kts | 254° |
| 2026-05-06 11:44 | 48.72391 | 2.36056 | 297 ft | 14 kts | 255° |
| 2026-05-06 11:44 | 48.72366 | 2.35915 | 298 ft | 14 kts | 255° |
| 2026-05-06 11:44 | 48.72341 | 2.35773 | 299 ft | 14 kts | 255° |
| 2026-05-06 11:45 | 48.72315 | 2.35633 | 301 ft | 12 kts | 248° |
| 2026-05-06 11:45 | 48.72242 | 2.35598 | 300 ft | 12 kts | 172° |
| 2026-05-06 11:45 | 48.72163 | 2.35626 | 298 ft | 12 kts | 166° |
| 2026-05-06 11:45 | 48.72086 | 2.35670 | 302 ft | 12 kts | 150° |
| 2026-05-06 11:46 | 48.72037 | 2.35739 | 299 ft | 0 kts | 127° |
| 2026-05-06 11:46 | 48.72036 | 2.35741 | 299 ft | 3 kts | 126° |
| 2026-05-06 11:46 | 48.71989 | 2.35852 | 300 ft | 15 kts | 120° |
| 2026-05-06 11:47 | 48.71968 | 2.36001 | 296 ft | 15 kts | 81° |
| 2026-05-06 11:47 | 48.71982 | 2.36083 | 298 ft | 12 kts | 74° |
| 2026-05-06 11:47 | 48.72056 | 2.36478 | 300 ft | 73 kts | 74° |
| 2026-05-06 11:47 | 48.72252 | 2.37550 | 294 ft | 137 kts | 76° |
| 2026-05-06 11:48 | 48.72551 | 2.39186 | 394 ft | 177 kts | 71° |
| 2026-05-06 11:48 | 48.72916 | 2.41091 | 807 ft | 197 kts | 69° |
| 2026-05-06 11:48 | 48.73295 | 2.43105 | 1710 ft | 197 kts | 71° |
| 2026-05-06 11:48 | 48.73659 | 2.45129 | 2298 ft | 207 kts | 71° |
| 2026-05-06 11:49 | 48.74029 | 2.47162 | 2505 ft | 223 kts | 74° |
| 2026-05-06 11:49 | 48.74196 | 2.49561 | 2909 ft | 235 kts | 84° |
| 2026-05-06 11:49 | 48.74259 | 2.52106 | 3271 ft | 249 kts | 84° |
| 2026-05-06 11:49 | 48.74327 | 2.54785 | 3750 ft | 258 kts | 85° |
| 2026-05-06 11:50 | 48.74055 | 2.57497 | 4188 ft | 271 kts | 112° |
| 2026-05-06 11:50 | 48.72865 | 2.59750 | 4771 ft | 281 kts | 142° |
| 2026-05-06 11:50 | 48.71061 | 2.60960 | 5394 ft | 287 kts | 171° |
| 2026-05-06 11:50 | 48.69100 | 2.60792 | 6208 ft | 283 kts | 199° |
| 2026-05-06 11:51 | 48.67428 | 2.59303 | 6788 ft | 280 kts | 230° |
| 2026-05-06 11:51 | 48.66494 | 2.56793 | 7348 ft | 275 kts | 261° |
| 2026-05-06 11:51 | 48.66402 | 2.53945 | 7812 ft | 270 kts | 274° |
| 2026-05-06 11:51 | 48.66439 | 2.51075 | 8279 ft | 275 kts | 272° |
| 2026-05-06 11:52 | 48.66461 | 2.48206 | 8982 ft | 271 kts | 272° |
| 2026-05-06 11:52 | 48.66484 | 2.45352 | 9583 ft | 271 kts | 271° |
| 2026-05-06 11:52 | 48.66506 | 2.42481 | 9978 ft | 276 kts | 270° |
| 2026-05-06 11:52 | 48.66400 | 2.39571 | 10136 ft | 284 kts | 255° |
| 2026-05-06 11:53 | 48.65640 | 2.36758 | 10272 ft | 295 kts | 245° |
| 2026-05-06 11:53 | 48.64789 | 2.33879 | 10431 ft | 312 kts | 248° |
| 2026-05-06 11:53 | 48.63933 | 2.30756 | 10577 ft | 332 kts | 249° |
| 2026-05-06 11:53 | 48.63072 | 2.27412 | 10726 ft | 345 kts | 254° |
| 2026-05-06 11:54 | 48.62865 | 2.23772 | 11045 ft | 355 kts | 277° |
| 2026-05-06 11:54 | 48.63294 | 2.20059 | 11401 ft | 365 kts | 280° |
| 2026-05-06 11:54 | 48.63717 | 2.16228 | 11979 ft | 374 kts | 279° |
| 2026-05-06 11:54 | 48.64113 | 2.12362 | 12980 ft | 371 kts | 278° |
| 2026-05-06 11:55 | 48.64503 | 2.08479 | 13758 ft | 376 kts | 278° |
| 2026-05-06 11:55 | 48.64896 | 2.04560 | 14434 ft | 379 kts | 278° |
| 2026-05-06 11:55 | 48.65293 | 2.00587 | 14936 ft | 387 kts | 278° |
| 2026-05-06 11:55 | 48.65697 | 1.96534 | 15460 ft | 393 kts | 278° |
| 2026-05-06 11:56 | 48.66105 | 1.92424 | 16058 ft | 397 kts | 278° |
| 2026-05-06 11:56 | 48.66517 | 1.88275 | 16654 ft | 402 kts | 278° |
| 2026-05-06 11:56 | 48.66932 | 1.84067 | 17264 ft | 405 kts | 278° |
| 2026-05-06 11:56 | 48.67350 | 1.79820 | 17833 ft | 410 kts | 278° |
| 2026-05-06 11:57 | 48.67771 | 1.75530 | 18347 ft | 414 kts | 278° |
| 2026-05-06 11:57 | 48.68193 | 1.71202 | 18917 ft | 415 kts | 278° |
| 2026-05-06 11:57 | 48.68612 | 1.66890 | 19480 ft | 417 kts | 278° |
| 2026-05-06 11:57 | 48.69035 | 1.62529 | 19911 ft | 422 kts | 278° |
| 2026-05-06 11:58 | 48.69462 | 1.58109 | 20326 ft | 426 kts | 278° |
| 2026-05-06 11:58 | 48.69891 | 1.53637 | 20775 ft | 430 kts | 279° |
| 2026-05-06 11:58 | 48.70321 | 1.49144 | 21223 ft | 433 kts | 279° |
| 2026-05-06 11:58 | 48.70754 | 1.44609 | 21680 ft | 437 kts | 279° |
| 2026-05-06 11:59 | 48.71188 | 1.40043 | 22124 ft | 440 kts | 279° |
| 2026-05-06 11:59 | 48.71623 | 1.35439 | 22606 ft | 443 kts | 279° |
| 2026-05-06 11:59 | 48.72061 | 1.30795 | 23008 ft | 447 kts | 279° |
| 2026-05-06 11:59 | 48.72493 | 1.26193 | 23470 ft | 449 kts | 279° |
| 2026-05-06 12:00 | 48.72932 | 1.21495 | 23892 ft | 451 kts | 279° |
| 2026-05-06 12:00 | 48.73370 | 1.16775 | 24275 ft | 454 kts | 279° |
| 2026-05-06 12:00 | 48.73807 | 1.12050 | 24634 ft | 456 kts | 279° |
| 2026-05-06 12:00 | 48.74247 | 1.07263 | 24997 ft | 458 kts | 279° |
| 2026-05-06 12:01 | 48.74686 | 1.02477 | 25377 ft | 460 kts | 279° |
| 2026-05-06 12:01 | 48.75126 | 0.97651 | 25734 ft | 463 kts | 279° |
| 2026-05-06 12:01 | 48.75564 | 0.92817 | 26114 ft | 464 kts | 279° |
| 2026-05-06 12:01 | 48.76003 | 0.87961 | 26499 ft | 466 kts | 279° |
| 2026-05-06 12:02 | 48.76441 | 0.83087 | 26873 ft | 467 kts | 279° |
| 2026-05-06 12:02 | 48.76879 | 0.78204 | 27248 ft | 469 kts | 278° |
| 2026-05-06 12:02 | 48.77316 | 0.73297 | 27635 ft | 472 kts | 278° |
| 2026-05-06 12:02 | 48.77754 | 0.68356 | 28021 ft | 475 kts | 279° |
| 2026-05-06 12:03 | 48.78193 | 0.63372 | 28382 ft | 478 kts | 278° |
| 2026-05-06 12:03 | 48.78633 | 0.58370 | 28691 ft | 480 kts | 279° |
| 2026-05-06 12:03 | 48.78925 | 0.55031 | 28913 ft | 481 kts | 279° |
| 2026-05-06 12:03 | 48.79450 | 0.50015 | 29213 ft | 483 kts | 284° |
| 2026-05-06 12:04 | 48.80256 | 0.45052 | 29516 ft | 484 kts | 287° |
| 2026-05-06 12:04 | 48.81202 | 0.40148 | 29778 ft | 485 kts | 288° |
| 2026-05-06 12:04 | 48.82179 | 0.35265 | 30104 ft | 484 kts | 288° |
| 2026-05-06 12:04 | 48.83141 | 0.30361 | 30408 ft | 483 kts | 288° |
| 2026-05-06 12:05 | 48.84066 | 0.25468 | 30694 ft | 483 kts | 287° |
| 2026-05-06 12:05 | 48.84967 | 0.20545 | 31039 ft | 483 kts | 287° |
| 2026-05-06 12:05 | 48.85847 | 0.15634 | 31381 ft | 482 kts | 286° |
| 2026-05-06 12:05 | 48.86719 | 0.10723 | 31758 ft | 481 kts | 287° |
| 2026-05-06 12:06 | 48.87588 | 0.05811 | 32166 ft | 481 kts | 286° |
| 2026-05-06 12:06 | 48.88448 | 0.00916 | 32630 ft | 480 kts | 286° |
| 2026-05-06 12:06 | 48.89312 | -0.04004 | 32945 ft | 480 kts | 286° |
| 2026-05-06 12:06 | 48.90174 | -0.08879 | 33306 ft | 478 kts | 286° |
| 2026-05-06 12:07 | 48.91034 | -0.13755 | 33622 ft | 477 kts | 286° |
| 2026-05-06 12:07 | 48.91880 | -0.18570 | 33892 ft | 477 kts | 286° |
| 2026-05-06 12:07 | 48.92740 | -0.23493 | 34132 ft | 477 kts | 285° |
| 2026-05-06 12:07 | 48.93574 | -0.28315 | 34367 ft | 477 kts | 285° |
| 2026-05-06 12:08 | 48.94412 | -0.33262 | 34636 ft | 476 kts | 285° |
| 2026-05-06 12:08 | 48.95230 | -0.38143 | 34874 ft | 476 kts | 285° |
| 2026-05-06 12:08 | 48.96044 | -0.43026 | 35128 ft | 475 kts | 285° |
| 2026-05-06 12:08 | 48.96845 | -0.47830 | 35339 ft | 475 kts | 284° |
| 2026-05-06 12:09 | 48.97656 | -0.52706 | 35549 ft | 475 kts | 284° |
| 2026-05-06 12:09 | 48.98469 | -0.57593 | 35769 ft | 475 kts | 284° |
| 2026-05-06 12:09 | 48.99278 | -0.62470 | 35902 ft | 477 kts | 284° |
| 2026-05-06 12:09 | 49.00037 | -0.67049 | 35920 ft | 481 kts | 284° |
| 2026-05-06 12:10 | 49.01657 | -0.76882 | 35976 ft | 477 kts | 284° |
| 2026-05-06 12:10 | 49.03255 | -0.86635 | 35975 ft | 473 kts | 284° |
| 2026-05-06 12:11 | 49.04840 | -0.96364 | 35978 ft | 472 kts | 284° |
| 2026-05-06 12:11 | 49.06413 | -1.06075 | 35973 ft | 472 kts | 284° |
| 2026-05-06 12:12 | 49.07981 | -1.15803 | 35977 ft | 472 kts | 284° |
| 2026-05-06 12:12 | 49.09553 | -1.25540 | 35978 ft | 472 kts | 284° |
| 2026-05-06 12:13 | 49.11131 | -1.35266 | 35979 ft | 472 kts | 284° |
| 2026-05-06 12:13 | 49.12699 | -1.44984 | 35982 ft | 471 kts | 284° |
| 2026-05-06 12:14 | 49.14258 | -1.54710 | 35972 ft | 471 kts | 284° |
| 2026-05-06 12:14 | 49.15804 | -1.64433 | 35985 ft | 470 kts | 284° |
| 2026-05-06 12:15 | 49.17327 | -1.74061 | 35979 ft | 470 kts | 284° |
| 2026-05-06 12:15 | 49.18857 | -1.83788 | 35980 ft | 471 kts | 284° |
| 2026-05-06 12:16 | 49.20369 | -1.93455 | 35994 ft | 472 kts | 284° |
| 2026-05-06 12:16 | 49.21891 | -2.03241 | 35997 ft | 473 kts | 284° |
| 2026-05-06 12:17 | 49.23492 | -2.13010 | 35986 ft | 474 kts | 285° |
| 2026-05-06 12:17 | 49.25192 | -2.22778 | 35990 ft | 475 kts | 285° |
| 2026-05-06 12:18 | 49.26885 | -2.32566 | 35986 ft | 476 kts | 285° |
| 2026-05-06 12:18 | 49.28555 | -2.42372 | 35991 ft | 475 kts | 285° |
| 2026-05-06 12:19 | 49.30204 | -2.52163 | 35991 ft | 474 kts | 284° |
| 2026-05-06 12:19 | 49.31842 | -2.61945 | 35993 ft | 473 kts | 284° |
| 2026-05-06 12:20 | 49.33466 | -2.71698 | 35990 ft | 472 kts | 284° |
| 2026-05-06 12:20 | 49.35078 | -2.81430 | 35984 ft | 470 kts | 284° |
| 2026-05-06 12:21 | 49.36677 | -2.91140 | 35985 ft | 468 kts | 284° |
| 2026-05-06 12:21 | 49.38261 | -3.00814 | 35986 ft | 468 kts | 284° |
| 2026-05-06 12:22 | 49.39838 | -3.10503 | 35987 ft | 467 kts | 284° |
| 2026-05-06 12:22 | 49.41407 | -3.20197 | 35999 ft | 467 kts | 284° |
| 2026-05-06 12:23 | 49.42958 | -3.29829 | 35982 ft | 468 kts | 284° |
| 2026-05-06 12:23 | 49.44511 | -3.39538 | 35987 ft | 468 kts | 284° |
| 2026-05-06 12:24 | 49.46057 | -3.49257 | 35990 ft | 469 kts | 284° |
| 2026-05-06 12:24 | 49.47597 | -3.58998 | 35995 ft | 469 kts | 283° |
| 2026-05-06 12:25 | 49.49130 | -3.68748 | 35988 ft | 469 kts | 283° |
| 2026-05-06 12:25 | 49.50651 | -3.78485 | 35994 ft | 468 kts | 283° |
| 2026-05-06 12:26 | 49.52163 | -3.88222 | 35995 ft | 467 kts | 283° |
| 2026-05-06 12:26 | 49.53663 | -3.97939 | 35998 ft | 467 kts | 283° |
| 2026-05-06 12:27 | 49.55154 | -4.07659 | 35996 ft | 466 kts | 283° |
| 2026-05-06 12:27 | 49.56640 | -4.17397 | 36000 ft | 466 kts | 283° |
| 2026-05-06 12:28 | 49.58116 | -4.27125 | 36012 ft | 467 kts | 283° |
| 2026-05-06 12:28 | 49.60068 | -4.36660 | 35996 ft | 467 kts | 294° |
| 2026-05-06 12:29 | 49.62892 | -4.45679 | 36002 ft | 467 kts | 296° |
| 2026-05-06 12:29 | 49.65747 | -4.54686 | 36023 ft | 468 kts | 295° |
| 2026-05-06 12:30 | 49.68577 | -4.63740 | 36007 ft | 468 kts | 295° |
| 2026-05-06 12:30 | 49.71380 | -4.72794 | 36008 ft | 467 kts | 295° |
| 2026-05-06 12:31 | 49.74172 | -4.81864 | 36008 ft | 467 kts | 295° |
| 2026-05-06 12:31 | 49.76957 | -4.90946 | 36007 ft | 467 kts | 295° |
| 2026-05-06 12:32 | 49.79735 | -5.00031 | 36007 ft | 467 kts | 295° |
| 2026-05-06 12:32 | 49.82504 | -5.09121 | 36000 ft | 466 kts | 295° |
| 2026-05-06 12:33 | 49.85244 | -5.18149 | 36000 ft | 466 kts | 295° |
| 2026-05-06 12:33 | 49.87995 | -5.27247 | 35994 ft | 466 kts | 294° |
| 2026-05-06 12:34 | 49.90738 | -5.36356 | 35990 ft | 466 kts | 294° |
| 2026-05-06 12:34 | 49.93474 | -5.45472 | 35994 ft | 466 kts | 294° |
| 2026-05-06 12:35 | 49.96201 | -5.54590 | 35998 ft | 465 kts | 294° |
| 2026-05-06 12:35 | 49.98921 | -5.63722 | 36020 ft | 465 kts | 294° |
| 2026-05-06 12:36 | 50.01632 | -5.72859 | 36022 ft | 465 kts | 294° |
| 2026-05-06 12:36 | 50.04330 | -5.81985 | 36021 ft | 465 kts | 294° |
| 2026-05-06 12:37 | 50.07025 | -5.91137 | 36024 ft | 464 kts | 294° |
| 2026-05-06 12:37 | 50.09707 | -6.00278 | 36023 ft | 464 kts | 294° |
| 2026-05-06 12:38 | 50.12383 | -6.09434 | 36024 ft | 464 kts | 294° |
| 2026-05-06 12:38 | 50.15047 | -6.18583 | 36027 ft | 463 kts | 294° |
| 2026-05-06 12:39 | 50.17685 | -6.27677 | 36036 ft | 463 kts | 293° |
| 2026-05-06 12:39 | 50.20333 | -6.36840 | 36035 ft | 463 kts | 293° |
| 2026-05-06 12:40 | 50.22972 | -6.46007 | 36040 ft | 463 kts | 293° |
| 2026-05-06 12:40 | 50.25603 | -6.55182 | 36042 ft | 463 kts | 293° |
| 2026-05-06 12:41 | 50.28228 | -6.64373 | 36033 ft | 463 kts | 293° |
| 2026-05-06 12:41 | 50.30843 | -6.73565 | 36036 ft | 463 kts | 293° |
| 2026-05-06 12:42 | 50.33452 | -6.82771 | 36038 ft | 463 kts | 293° |
| 2026-05-06 12:42 | 50.36055 | -6.91989 | 36036 ft | 463 kts | 293° |
| 2026-05-06 12:43 | 50.38646 | -7.01201 | 36037 ft | 463 kts | 293° |
| 2026-05-06 12:43 | 50.41237 | -7.10448 | 36037 ft | 463 kts | 293° |
| 2026-05-06 12:44 | 50.43815 | -7.19688 | 36039 ft | 463 kts | 293° |
| 2026-05-06 12:44 | 50.46390 | -7.28952 | 36037 ft | 463 kts | 293° |
| 2026-05-06 12:45 | 50.48956 | -7.38223 | 36039 ft | 463 kts | 292° |
| 2026-05-06 12:46 | 50.52795 | -7.52157 | 36036 ft | 463 kts | 292° |
| 2026-05-06 12:46 | 50.55347 | -7.61467 | 36038 ft | 464 kts | 292° |
| 2026-05-06 12:47 | 50.57895 | -7.70799 | 36034 ft | 464 kts | 292° |
| 2026-05-06 12:47 | 50.60416 | -7.80071 | 36032 ft | 464 kts | 292° |
| 2026-05-06 12:48 | 50.62950 | -7.89429 | 36043 ft | 465 kts | 292° |
| 2026-05-06 12:48 | 50.65480 | -7.98804 | 36032 ft | 465 kts | 292° |
| 2026-05-06 12:49 | 50.67763 | -8.08340 | 36032 ft | 465 kts | 289° |
| 2026-05-06 12:49 | 50.69915 | -8.17970 | 36031 ft | 465 kts | 289° |
| 2026-05-06 12:50 | 50.72057 | -8.27594 | 36034 ft | 466 kts | 289° |
| 2026-05-06 12:50 | 50.73848 | -8.35614 | 36029 ft | 466 kts | 289° |
| 2026-05-06 12:51 | 50.76003 | -8.45263 | 36026 ft | 466 kts | 289° |
| 2026-05-06 12:51 | 50.78153 | -8.54922 | 36027 ft | 466 kts | 289° |
| 2026-05-06 12:52 | 50.80295 | -8.64587 | 36030 ft | 466 kts | 289° |
| 2026-05-06 12:52 | 50.82432 | -8.74280 | 36029 ft | 467 kts | 289° |
| 2026-05-06 12:53 | 50.84559 | -8.83976 | 36031 ft | 467 kts | 289° |
| 2026-05-06 12:53 | 50.86681 | -8.93693 | 36030 ft | 467 kts | 289° |
| 2026-05-06 12:54 | 50.88783 | -9.03363 | 36027 ft | 467 kts | 289° |
| 2026-05-06 12:54 | 50.90891 | -9.13109 | 36031 ft | 468 kts | 289° |
| 2026-05-06 12:55 | 50.92992 | -9.22867 | 36031 ft | 468 kts | 289° |
| 2026-05-06 12:55 | 50.95086 | -9.32636 | 36033 ft | 468 kts | 289° |
| 2026-05-06 12:56 | 50.97173 | -9.42425 | 36034 ft | 468 kts | 289° |
| 2026-05-06 12:56 | 50.99251 | -9.52220 | 36031 ft | 468 kts | 289° |
| 2026-05-06 12:57 | 51.01321 | -9.62020 | 36034 ft | 468 kts | 289° |
| 2026-05-06 12:57 | 51.03386 | -9.71845 | 36033 ft | 469 kts | 289° |
| 2026-05-06 12:58 | 51.05443 | -9.81678 | 36032 ft | 469 kts | 289° |
| 2026-05-06 12:58 | 51.07494 | -9.91535 | 36033 ft | 469 kts | 288° |
| 2026-05-06 12:59 | 51.09536 | -10.01396 | 36033 ft | 469 kts | 288° |
| 2026-05-06 12:59 | 51.11568 | -10.11257 | 36033 ft | 469 kts | 288° |
| 2026-05-06 13:00 | 51.13593 | -10.21131 | 36036 ft | 469 kts | 288° |
| 2026-05-06 13:00 | 51.15593 | -10.30932 | 36039 ft | 468 kts | 288° |
| 2026-05-06 13:01 | 51.17609 | -10.40862 | 36037 ft | 468 kts | 288° |
| 2026-05-06 13:01 | 51.19588 | -10.50663 | 36034 ft | 467 kts | 288° |
| 2026-05-06 13:02 | 51.21573 | -10.60537 | 36037 ft | 467 kts | 288° |
| 2026-05-06 13:02 | 51.23549 | -10.70419 | 36043 ft | 467 kts | 288° |
| 2026-05-06 13:03 | 51.25517 | -10.80312 | 36044 ft | 468 kts | 288° |
| 2026-05-06 13:03 | 51.27480 | -10.90226 | 36044 ft | 469 kts | 288° |
| 2026-05-06 13:04 | 51.29436 | -11.00160 | 36046 ft | 469 kts | 288° |
| 2026-05-06 13:04 | 51.31387 | -11.10124 | 36041 ft | 470 kts | 289° |
| 2026-05-06 13:05 | 51.33337 | -11.20121 | 36051 ft | 471 kts | 289° |
| 2026-05-06 13:05 | 51.35284 | -11.30163 | 36047 ft | 473 kts | 288° |
| 2026-05-06 13:06 | 51.37223 | -11.40217 | 36056 ft | 474 kts | 288° |
| 2026-05-06 13:06 | 51.39160 | -11.50315 | 36054 ft | 474 kts | 288° |
| 2026-05-06 13:07 | 51.41087 | -11.60417 | 36044 ft | 475 kts | 289° |
| 2026-05-06 13:07 | 51.43010 | -11.70547 | 36066 ft | 475 kts | 288° |
| 2026-05-06 13:08 | 51.44924 | -11.80688 | 36056 ft | 476 kts | 288° |
| 2026-05-06 13:08 | 51.46820 | -11.90788 | 36055 ft | 476 kts | 289° |
| 2026-05-06 13:09 | 51.48720 | -12.00956 | 36048 ft | 476 kts | 289° |
| 2026-05-06 13:09 | 51.50608 | -12.11126 | 36058 ft | 476 kts | 289° |
| 2026-05-06 13:10 | 51.52490 | -12.21317 | 36068 ft | 476 kts | 289° |
| 2026-05-06 13:10 | 51.54366 | -12.31527 | 36061 ft | 476 kts | 289° |
| 2026-05-06 13:11 | 51.56233 | -12.41750 | 36061 ft | 477 kts | 288° |
| 2026-05-06 13:11 | 51.58092 | -12.51984 | 36063 ft | 477 kts | 288° |
| 2026-05-06 13:12 | 51.59942 | -12.62225 | 36058 ft | 477 kts | 288° |
| 2026-05-06 13:12 | 51.61783 | -12.72481 | 36052 ft | 477 kts | 289° |
| 2026-05-06 13:13 | 51.63614 | -12.82728 | 36062 ft | 477 kts | 289° |
| 2026-05-06 13:13 | 51.65438 | -12.92995 | 36064 ft | 477 kts | 288° |
| 2026-05-06 13:14 | 51.67251 | -13.03266 | 36057 ft | 477 kts | 288° |
| 2026-05-06 13:14 | 51.69054 | -13.13534 | 36059 ft | 476 kts | 288° |
| 2026-05-06 13:15 | 51.70849 | -13.23822 | 36053 ft | 476 kts | 288° |
| 2026-05-06 13:15 | 51.72632 | -13.34096 | 36059 ft | 476 kts | 288° |
| 2026-05-06 13:16 | 51.74406 | -13.44376 | 36062 ft | 476 kts | 288° |
| 2026-05-06 13:16 | 51.76170 | -13.54664 | 36065 ft | 475 kts | 288° |
| 2026-05-06 13:17 | 51.77909 | -13.64860 | 36058 ft | 473 kts | 288° |
| 2026-05-06 13:17 | 51.79645 | -13.75104 | 36048 ft | 472 kts | 288° |
| 2026-05-06 13:18 | 51.81367 | -13.85320 | 36061 ft | 470 kts | 288° |
| 2026-05-06 13:18 | 51.83077 | -13.95527 | 36062 ft | 470 kts | 288° |
| 2026-05-06 13:19 | 51.84774 | -14.05717 | 36058 ft | 469 kts | 288° |
| 2026-05-06 13:19 | 51.86464 | -14.15925 | 36060 ft | 469 kts | 288° |
| 2026-05-06 13:20 | 51.88146 | -14.26146 | 36062 ft | 470 kts | 288° |
| 2026-05-06 13:20 | 51.89819 | -14.36371 | 36061 ft | 470 kts | 288° |
| 2026-05-06 13:21 | 51.91481 | -14.46599 | 36059 ft | 469 kts | 287° |
| 2026-05-06 13:21 | 51.93132 | -14.56814 | 36062 ft | 469 kts | 287° |
| 2026-05-06 13:22 | 51.94774 | -14.67038 | 36057 ft | 468 kts | 287° |
| 2026-05-06 13:22 | 51.96406 | -14.77258 | 36058 ft | 468 kts | 287° |
| 2026-05-06 13:23 | 51.98027 | -14.87479 | 36042 ft | 467 kts | 287° |
| 2026-05-06 13:23 | 51.99638 | -14.97687 | 36054 ft | 467 kts | 287° |
| 2026-05-06 13:24 | 52.01038 | -15.07993 | 36050 ft | 468 kts | 284° |
| 2026-05-06 13:24 | 52.02273 | -15.18382 | 36057 ft | 469 kts | 283° |
| 2026-05-06 13:25 | 52.03487 | -15.28715 | 36055 ft | 468 kts | 283° |
| 2026-05-06 13:25 | 52.04715 | -15.39097 | 36055 ft | 468 kts | 283° |
| 2026-05-06 13:26 | 52.05944 | -15.49482 | 36056 ft | 468 kts | 283° |
| 2026-05-06 13:26 | 52.07165 | -15.59870 | 36055 ft | 467 kts | 283° |
| 2026-05-06 13:27 | 52.08375 | -15.70248 | 36051 ft | 467 kts | 283° |
| 2026-05-06 13:27 | 52.09576 | -15.80640 | 36047 ft | 467 kts | 283° |
| 2026-05-06 13:28 | 52.10766 | -15.91017 | 36037 ft | 467 kts | 283° |
| 2026-05-06 13:28 | 52.11948 | -16.01410 | 36056 ft | 467 kts | 283° |
| 2026-05-06 13:29 | 52.13112 | -16.11736 | 36054 ft | 467 kts | 283° |
| 2026-05-06 13:29 | 52.14275 | -16.22127 | 36047 ft | 466 kts | 282° |
| 2026-05-06 13:30 | 52.15426 | -16.32517 | 36050 ft | 466 kts | 282° |
| 2026-05-06 13:30 | 52.16568 | -16.42905 | 36058 ft | 465 kts | 282° |
| 2026-05-06 13:31 | 52.17700 | -16.53285 | 36052 ft | 465 kts | 282° |
| 2026-05-06 13:31 | 52.18820 | -16.63645 | 36051 ft | 464 kts | 282° |
| 2026-05-06 13:32 | 52.19929 | -16.73998 | 36053 ft | 464 kts | 282° |
| 2026-05-06 13:32 | 52.21031 | -16.84367 | 36049 ft | 464 kts | 282° |
| 2026-05-06 13:33 | 52.22123 | -16.94737 | 36052 ft | 464 kts | 282° |
| 2026-05-06 13:33 | 52.23207 | -17.05117 | 36043 ft | 464 kts | 281° |
| 2026-05-06 13:34 | 52.24281 | -17.15499 | 36053 ft | 464 kts | 281° |
| 2026-05-06 13:34 | 52.25167 | -17.24134 | 36052 ft | 464 kts | 281° |
| 2026-05-06 13:35 | 52.26225 | -17.34539 | 36050 ft | 465 kts | 281° |
| 2026-05-06 13:35 | 52.27275 | -17.44953 | 36049 ft | 465 kts | 281° |
| 2026-05-06 13:36 | 52.28317 | -17.55382 | 36047 ft | 465 kts | 281° |
| 2026-05-06 13:36 | 52.29350 | -17.65820 | 36047 ft | 465 kts | 280° |
| 2026-05-06 13:37 | 52.30373 | -17.76251 | 36048 ft | 465 kts | 280° |
| 2026-05-06 13:37 | 52.31381 | -17.86638 | 36046 ft | 466 kts | 280° |
| 2026-05-06 13:38 | 52.32388 | -17.97097 | 36046 ft | 466 kts | 280° |
| 2026-05-06 13:38 | 52.33384 | -18.07558 | 36048 ft | 466 kts | 280° |
| 2026-05-06 13:39 | 52.34372 | -18.18025 | 36046 ft | 466 kts | 279° |
| 2026-05-06 13:39 | 52.35351 | -18.28508 | 36046 ft | 466 kts | 279° |
| 2026-05-06 13:40 | 52.36320 | -18.38986 | 36046 ft | 465 kts | 279° |
| 2026-05-06 13:40 | 52.37279 | -18.49464 | 36047 ft | 465 kts | 279° |
| 2026-05-06 13:41 | 52.38229 | -18.59938 | 36048 ft | 465 kts | 279° |
| 2026-05-06 13:41 | 52.39169 | -18.70413 | 36039 ft | 465 kts | 278° |
| 2026-05-06 13:42 | 52.40100 | -18.80895 | 36045 ft | 465 kts | 278° |
| 2026-05-06 13:42 | 52.41015 | -18.91313 | 36049 ft | 466 kts | 278° |
| 2026-05-06 13:43 | 52.41934 | -19.01880 | 36048 ft | 466 kts | 278° |
| 2026-05-06 13:43 | 52.42832 | -19.12325 | 36043 ft | 466 kts | 278° |
| 2026-05-06 13:44 | 52.43729 | -19.22860 | 36047 ft | 466 kts | 278° |
| 2026-05-06 13:44 | 52.44616 | -19.33391 | 36042 ft | 466 kts | 277° |
| 2026-05-06 13:45 | 52.45493 | -19.43925 | 36050 ft | 466 kts | 277° |
| 2026-05-06 13:45 | 52.46791 | -19.59733 | 36048 ft | 466 kts | 277° |
| 2026-05-06 13:46 | 52.47645 | -19.70273 | 36044 ft | 466 kts | 277° |
| 2026-05-06 13:46 | 52.48490 | -19.80829 | 36047 ft | 466 kts | 277° |
| 2026-05-06 13:47 | 52.49327 | -19.91392 | 36047 ft | 466 kts | 276° |
| 2026-05-06 13:47 | 52.50114 | -20.01962 | 36048 ft | 466 kts | 274° |
| 2026-05-06 13:48 | 52.50576 | -20.12574 | 36049 ft | 466 kts | 273° |
| 2026-05-06 13:48 | 52.50978 | -20.23201 | 36053 ft | 466 kts | 273° |
| 2026-05-06 13:49 | 52.51379 | -20.33750 | 36044 ft | 466 kts | 273° |
| 2026-05-06 13:49 | 52.51790 | -20.44449 | 36047 ft | 467 kts | 272° |
| 2026-05-06 13:50 | 52.52192 | -20.55011 | 36046 ft | 467 kts | 272° |
| 2026-05-06 13:50 | 52.52588 | -20.65646 | 36043 ft | 466 kts | 272° |
| 2026-05-06 13:51 | 52.52973 | -20.76270 | 36041 ft | 466 kts | 272° |
| 2026-05-06 13:51 | 52.53349 | -20.86911 | 36046 ft | 466 kts | 272° |
| 2026-05-06 13:52 | 52.53715 | -20.97537 | 36043 ft | 466 kts | 272° |
| 2026-05-06 13:52 | 52.54070 | -21.08123 | 36043 ft | 466 kts | 272° |
| 2026-05-06 13:53 | 52.54416 | -21.18752 | 36044 ft | 466 kts | 272° |
| 2026-05-06 13:53 | 52.54753 | -21.29371 | 36043 ft | 466 kts | 272° |
| 2026-05-06 13:54 | 52.55081 | -21.40010 | 36056 ft | 466 kts | 271° |
| 2026-05-06 13:54 | 52.55400 | -21.50639 | 36046 ft | 466 kts | 271° |
| 2026-05-06 13:55 | 52.55708 | -21.61274 | 36050 ft | 466 kts | 271° |
| 2026-05-06 13:55 | 52.56007 | -21.71921 | 36049 ft | 466 kts | 271° |
| 2026-05-06 13:56 | 52.56297 | -21.82563 | 36047 ft | 466 kts | 271° |
| 2026-05-06 13:56 | 52.56577 | -21.93216 | 36050 ft | 466 kts | 271° |
| 2026-05-06 13:57 | 52.56848 | -22.03861 | 36035 ft | 467 kts | 270° |
| 2026-05-06 13:57 | 52.57109 | -22.14529 | 36056 ft | 467 kts | 270° |
| 2026-05-06 13:58 | 52.57361 | -22.25199 | 36042 ft | 468 kts | 270° |
| 2026-05-06 13:58 | 52.57604 | -22.35902 | 36051 ft | 469 kts | 270° |
| 2026-05-06 13:59 | 52.57838 | -22.46625 | 36040 ft | 469 kts | 270° |
| 2026-05-06 13:59 | 52.58063 | -22.57347 | 36064 ft | 470 kts | 270° |
| 2026-05-06 14:00 | 52.58278 | -22.68105 | 36057 ft | 471 kts | 270° |
| 2026-05-06 14:00 | 52.58482 | -22.78804 | 36060 ft | 471 kts | 269° |
| 2026-05-06 14:01 | 52.58678 | -22.89585 | 36057 ft | 472 kts | 269° |
| 2026-05-06 14:01 | 52.58864 | -23.00376 | 36058 ft | 472 kts | 269° |
| 2026-05-06 14:02 | 52.59041 | -23.11164 | 36066 ft | 472 kts | 269° |
| 2026-05-06 14:02 | 52.59208 | -23.21968 | 36052 ft | 473 kts | 269° |
| 2026-05-06 14:03 | 52.59365 | -23.32785 | 36052 ft | 473 kts | 269° |
| 2026-05-06 14:03 | 52.59512 | -23.43584 | 36057 ft | 473 kts | 269° |
| 2026-05-06 14:04 | 52.59650 | -23.54397 | 36057 ft | 473 kts | 269° |
| 2026-05-06 14:04 | 52.59778 | -23.65191 | 36064 ft | 472 kts | 269° |
| 2026-05-06 14:05 | 52.59896 | -23.76006 | 36062 ft | 473 kts | 268° |
| 2026-05-06 14:05 | 52.60004 | -23.86824 | 36052 ft | 473 kts | 268° |
| 2026-05-06 14:06 | 52.60102 | -23.97640 | 36051 ft | 473 kts | 268° |
| 2026-05-06 14:06 | 52.60190 | -24.08466 | 36050 ft | 473 kts | 268° |
| 2026-05-06 14:07 | 52.60269 | -24.19284 | 36048 ft | 473 kts | 268° |
| 2026-05-06 14:07 | 52.60337 | -24.30081 | 36049 ft | 472 kts | 268° |
| 2026-05-06 14:08 | 52.60396 | -24.40889 | 36050 ft | 472 kts | 268° |
| 2026-05-06 14:08 | 52.60445 | -24.51678 | 36048 ft | 471 kts | 268° |
| 2026-05-06 14:09 | 52.60484 | -24.62453 | 36046 ft | 471 kts | 268° |
| 2026-05-06 14:09 | 52.60513 | -24.73229 | 36046 ft | 471 kts | 268° |
| 2026-05-06 14:10 | 52.60532 | -24.83945 | 36057 ft | 471 kts | 268° |
| 2026-05-06 14:10 | 52.60542 | -24.94703 | 36058 ft | 470 kts | 268° |
| 2026-05-06 14:11 | 52.60542 | -25.05467 | 36044 ft | 470 kts | 268° |
| 2026-05-06 14:11 | 52.60532 | -25.16237 | 36046 ft | 470 kts | 268° |
| 2026-05-06 14:12 | 52.60512 | -25.26991 | 36043 ft | 470 kts | 268° |
| 2026-05-06 14:12 | 52.60482 | -25.37750 | 36045 ft | 470 kts | 268° |
| 2026-05-06 14:13 | 52.60444 | -25.48499 | 36037 ft | 470 kts | 268° |
| 2026-05-06 14:13 | 52.60395 | -25.59253 | 36038 ft | 470 kts | 268° |
| 2026-05-06 14:14 | 52.60336 | -25.70002 | 36035 ft | 470 kts | 268° |
| 2026-05-06 14:14 | 52.60268 | -25.80751 | 36040 ft | 470 kts | 267° |
| 2026-05-06 14:15 | 52.60190 | -25.91489 | 36040 ft | 469 kts | 268° |
| 2026-05-06 14:15 | 52.60102 | -26.02235 | 36035 ft | 469 kts | 267° |
| 2026-05-06 14:16 | 52.60005 | -26.12975 | 36043 ft | 469 kts | 267° |
| 2026-05-06 14:16 | 52.59898 | -26.23716 | 36035 ft | 470 kts | 267° |
| 2026-05-06 14:17 | 52.59781 | -26.34458 | 36032 ft | 470 kts | 267° |
| 2026-05-06 14:17 | 52.59654 | -26.45206 | 36032 ft | 470 kts | 267° |
| 2026-05-06 14:18 | 52.59518 | -26.55971 | 36026 ft | 470 kts | 267° |
| 2026-05-06 14:18 | 52.59397 | -26.64902 | 36028 ft | 470 kts | 267° |
| 2026-05-06 14:19 | 52.59243 | -26.75662 | 36025 ft | 470 kts | 267° |
| 2026-05-06 14:19 | 52.59079 | -26.86418 | 36024 ft | 470 kts | 267° |
| 2026-05-06 14:20 | 52.58905 | -26.97191 | 36028 ft | 471 kts | 267° |
| 2026-05-06 14:20 | 52.58721 | -27.07945 | 36021 ft | 471 kts | 267° |
| 2026-05-06 14:21 | 52.58528 | -27.18713 | 36018 ft | 471 kts | 266° |
| 2026-05-06 14:21 | 52.58326 | -27.29396 | 36026 ft | 471 kts | 266° |
| 2026-05-06 14:22 | 52.58113 | -27.40149 | 36019 ft | 471 kts | 266° |
| 2026-05-06 14:22 | 52.57890 | -27.50906 | 36018 ft | 471 kts | 266° |
| 2026-05-06 14:23 | 52.57658 | -27.61679 | 36012 ft | 471 kts | 266° |
| 2026-05-06 14:23 | 52.57415 | -27.72451 | 36007 ft | 471 kts | 266° |
| 2026-05-06 14:24 | 52.57163 | -27.83205 | 36014 ft | 471 kts | 266° |
| 2026-05-06 14:24 | 52.56901 | -27.93972 | 36011 ft | 471 kts | 266° |
| 2026-05-06 14:25 | 52.56630 | -28.04737 | 36011 ft | 471 kts | 266° |
| 2026-05-06 14:25 | 52.56348 | -28.15516 | 36003 ft | 471 kts | 266° |
| 2026-05-06 14:26 | 52.56056 | -28.26288 | 36002 ft | 471 kts | 266° |
| 2026-05-06 14:26 | 52.55757 | -28.36980 | 35998 ft | 471 kts | 266° |
| 2026-05-06 14:27 | 52.55447 | -28.47734 | 35999 ft | 471 kts | 266° |
| 2026-05-06 14:27 | 52.55126 | -28.58486 | 35998 ft | 471 kts | 266° |
| 2026-05-06 14:28 | 52.54796 | -28.69253 | 35992 ft | 471 kts | 266° |
| 2026-05-06 14:28 | 52.54456 | -28.79995 | 35990 ft | 471 kts | 266° |
| 2026-05-06 14:29 | 52.54106 | -28.90781 | 35996 ft | 471 kts | 266° |
| 2026-05-06 14:29 | 52.53746 | -29.01522 | 35993 ft | 471 kts | 266° |
| 2026-05-06 14:30 | 52.53377 | -29.12291 | 35991 ft | 471 kts | 266° |
| 2026-05-06 14:30 | 52.52998 | -29.23042 | 35981 ft | 471 kts | 266° |
| 2026-05-06 14:31 | 52.52609 | -29.33793 | 35988 ft | 471 kts | 266° |
| 2026-05-06 14:31 | 52.52211 | -29.44533 | 35982 ft | 471 kts | 266° |
| 2026-05-06 14:32 | 52.51802 | -29.55279 | 35976 ft | 471 kts | 266° |
| 2026-05-06 14:32 | 52.51388 | -29.65939 | 35976 ft | 472 kts | 266° |
| 2026-05-06 14:33 | 52.50960 | -29.76689 | 35979 ft | 472 kts | 266° |
| 2026-05-06 14:33 | 52.50523 | -29.87432 | 35980 ft | 472 kts | 266° |
| 2026-05-06 14:34 | 52.50078 | -29.98179 | 35978 ft | 472 kts | 266° |
| 2026-05-06 14:34 | 52.49869 | -30.08953 | 35983 ft | 472 kts | 269° |
| 2026-05-06 14:35 | 52.49800 | -30.19720 | 35984 ft | 472 kts | 269° |
| 2026-05-06 14:35 | 52.49723 | -30.30488 | 35985 ft | 471 kts | 269° |
| 2026-05-06 14:36 | 52.49621 | -30.41171 | 35982 ft | 465 kts | 268° |
| 2026-05-06 14:36 | 52.49502 | -30.51744 | 35997 ft | 464 kts | 268° |
| 2026-05-06 14:37 | 52.49369 | -30.62381 | 36003 ft | 468 kts | 268° |
| 2026-05-06 14:37 | 52.49228 | -30.73079 | 36009 ft | 469 kts | 268° |
| 2026-05-06 14:38 | 52.49078 | -30.83789 | 36002 ft | 470 kts | 268° |
| 2026-05-06 14:38 | 52.48918 | -30.94432 | 36006 ft | 470 kts | 268° |
| 2026-05-06 14:39 | 52.48749 | -31.05138 | 36016 ft | 469 kts | 268° |
| 2026-05-06 14:39 | 52.48569 | -31.15847 | 36006 ft | 469 kts | 268° |
| 2026-05-06 14:40 | 52.48380 | -31.26554 | 36023 ft | 469 kts | 268° |
| 2026-05-06 14:40 | 52.48182 | -31.37239 | 36015 ft | 469 kts | 268° |
| 2026-05-06 14:41 | 52.47974 | -31.47921 | 36024 ft | 469 kts | 268° |
| 2026-05-06 14:41 | 52.47756 | -31.58620 | 36019 ft | 469 kts | 268° |
| 2026-05-06 14:42 | 52.47529 | -31.69295 | 36028 ft | 468 kts | 268° |
| 2026-05-06 14:42 | 52.47292 | -31.79982 | 36027 ft | 469 kts | 268° |
| 2026-05-06 14:43 | 52.47045 | -31.90685 | 36032 ft | 470 kts | 268° |
| 2026-05-06 14:43 | 52.46787 | -32.01396 | 36032 ft | 470 kts | 268° |
| 2026-05-06 14:44 | 52.46521 | -32.12122 | 36036 ft | 471 kts | 267° |
| 2026-05-06 14:45 | 52.46102 | -32.28214 | 36044 ft | 470 kts | 267° |
| 2026-05-06 14:45 | 52.45810 | -32.38932 | 36041 ft | 470 kts | 267° |
| 2026-05-06 14:46 | 52.45510 | -32.49624 | 36047 ft | 469 kts | 267° |
| 2026-05-06 14:46 | 52.45202 | -32.60249 | 36049 ft | 470 kts | 267° |
| 2026-05-06 14:47 | 52.44883 | -32.70944 | 36051 ft | 470 kts | 267° |
| 2026-05-06 14:47 | 52.44553 | -32.81652 | 36060 ft | 471 kts | 267° |
| 2026-05-06 14:48 | 52.44213 | -32.92386 | 36056 ft | 471 kts | 267° |
| 2026-05-06 14:48 | 52.43863 | -33.03127 | 36064 ft | 472 kts | 267° |
| 2026-05-06 14:49 | 52.43503 | -33.13866 | 36056 ft | 472 kts | 267° |
| 2026-05-06 14:49 | 52.43133 | -33.24613 | 36068 ft | 472 kts | 267° |
| 2026-05-06 14:50 | 52.42754 | -33.35348 | 36070 ft | 472 kts | 267° |
| 2026-05-06 14:50 | 52.42365 | -33.46077 | 36074 ft | 472 kts | 267° |
| 2026-05-06 14:51 | 52.41966 | -33.56808 | 36070 ft | 471 kts | 267° |
| 2026-05-06 14:51 | 52.41558 | -33.67517 | 36069 ft | 471 kts | 267° |
| 2026-05-06 14:52 | 52.41143 | -33.78163 | 36083 ft | 471 kts | 267° |
| 2026-05-06 14:52 | 52.40716 | -33.88880 | 36079 ft | 472 kts | 267° |
| 2026-05-06 14:53 | 52.40278 | -33.99606 | 36080 ft | 472 kts | 267° |
| 2026-05-06 14:53 | 52.39830 | -34.10340 | 36079 ft | 473 kts | 267° |
| 2026-05-06 14:54 | 52.39372 | -34.21099 | 36085 ft | 474 kts | 266° |
| 2026-05-06 14:54 | 52.38900 | -34.31920 | 36085 ft | 473 kts | 267° |
| 2026-05-06 14:55 | 52.38422 | -34.42662 | 36086 ft | 473 kts | 267° |
| 2026-05-06 14:55 | 52.37939 | -34.53329 | 36087 ft | 473 kts | 267° |
| 2026-05-06 14:56 | 52.37442 | -34.64051 | 36089 ft | 472 kts | 266° |
| 2026-05-06 14:56 | 52.36936 | -34.74768 | 36089 ft | 472 kts | 266° |
| 2026-05-06 14:57 | 52.36421 | -34.85462 | 36086 ft | 472 kts | 267° |
| 2026-05-06 14:57 | 52.35897 | -34.96146 | 36090 ft | 471 kts | 267° |
| 2026-05-06 14:58 | 52.35364 | -35.06823 | 36097 ft | 471 kts | 267° |
| 2026-05-06 14:58 | 52.34821 | -35.17498 | 36098 ft | 471 kts | 266° |